createdAt,value
2019-04-14T00:01:11.338Z,46.07
2019-04-14T00:06:20.118Z,47.73
2019-04-14T00:11:28.009Z,46.33
2019-04-14T00:16:35.606Z,46.70
2019-04-14T00:21:45.439Z,45.07
2019-04-14T00:26:53.808Z,46.03
2019-04-14T00:32:00.948Z,47.27
2019-04-14T00:37:20.513Z,51.10
2019-04-14T00:42:34.185Z,52.30
2019-04-14T00:47:57.173Z,49.27
2019-04-14T00:52:54.740Z,49.13
2019-04-14T00:58:03.862Z,50.47
2019-04-14T01:03:11.279Z,49.90
2019-04-14T01:08:18.496Z,49.57
2019-04-14T01:13:25.221Z,48.43
2019-04-14T01:18:32.561Z,55.90
2019-04-14T01:23:39.213Z,49.73
2019-04-14T01:28:46.154Z,47.13
2019-04-14T01:33:53.403Z,45.23
2019-04-14T01:39:00.385Z,47.70
2019-04-14T01:44:09.164Z,53.40
2019-04-14T01:49:16.121Z,50.33
2019-04-14T01:54:40.970Z,51.60
2019-04-14T01:59:50.308Z,54.83
2019-04-14T02:04:57.600Z,45.40
2019-04-14T02:10:06.524Z,47.77
2019-04-14T02:15:13.431Z,50.73
2019-04-14T02:20:20.752Z,50.50
2019-04-14T02:25:27.736Z,56.47
2019-04-14T02:30:41.494Z,48.47
2019-04-14T02:36:14.548Z,55.57
2019-04-14T02:41:21.546Z,56.63
2019-04-14T02:46:32.213Z,54.83
2019-04-14T02:51:38.551Z,53.37
2019-04-14T02:57:03.562Z,62.43
2019-04-14T03:02:16.218Z,53.80
2019-04-14T03:07:16.572Z,56.07
2019-04-14T03:12:29.133Z,54.87
2019-04-14T03:17:50.862Z,57.63
2019-04-14T03:38:15.125Z,62.47
2019-04-14T03:43:22.598Z,58.80
2019-04-14T03:53:38.719Z,54.70
2019-04-14T03:58:20.353Z,61.43
2019-04-14T04:03:28.204Z,60.93
2019-04-14T04:08:36.064Z,56.17
2019-04-14T04:13:43.268Z,54.47
2019-04-14T04:18:59.087Z,54.17
2019-04-14T04:24:02.478Z,56.50
2019-04-14T04:29:16.197Z,59.77
2019-04-14T04:34:25.090Z,55.23
2019-04-14T04:39:39.694Z,51.03
2019-04-14T04:44:46.648Z,46.53
2019-04-14T04:49:55.372Z,51.00
2019-04-14T04:55:04.629Z,53.07
2019-04-14T05:00:13.440Z,48.40
2019-04-14T05:06:09.250Z,55.23
2019-04-14T05:11:20.926Z,45.70
2019-04-14T05:16:30.064Z,51.67
2019-04-14T05:21:36.668Z,48.87
2019-04-14T05:26:43.852Z,47.03
2019-04-14T05:31:51.924Z,41.83
2019-04-14T05:37:00.657Z,41.17
2019-04-14T05:42:15.684Z,46.73
2019-04-14T05:47:17.960Z,46.87
2019-04-14T05:52:25.454Z,44.90
2019-04-14T05:57:35.222Z,50.60
2019-04-14T06:02:42.121Z,43.00
2019-04-14T06:07:50.372Z,51.33
2019-04-14T06:12:57.149Z,51.73
2019-04-14T06:18:05.322Z,46.57
2019-04-14T06:23:12.150Z,47.77
2019-04-14T06:28:18.847Z,50.47
2019-04-14T06:33:27.282Z,48.53
2019-04-14T06:38:34.785Z,46.47
2019-04-14T06:43:48.643Z,45.73
2019-04-14T06:48:51.429Z,47.20
2019-04-14T06:53:57.501Z,46.70
2019-04-14T06:59:05.845Z,50.37
2019-04-14T07:04:12.719Z,47.77
2019-04-14T07:09:18.704Z,42.97
2019-04-14T07:14:26.017Z,37.57
2019-04-14T07:19:33.197Z,41.80
2019-04-14T07:24:39.091Z,35.47
2019-04-14T07:29:59.275Z,37.00
2019-04-14T07:35:11.236Z,19.37
2019-04-14T07:40:24.530Z,17.33
2019-04-14T07:45:32.135Z,17.10
2019-04-14T07:50:40.559Z,16.20
2019-04-14T07:55:53.703Z,17.53
2019-04-14T08:01:08.199Z,13.40
2019-04-14T08:06:27.902Z,12.33
2019-04-14T08:11:33.839Z,12.57
2019-04-14T08:16:40.731Z,13.83
2019-04-14T08:21:48.448Z,17.07
2019-04-14T08:26:56.065Z,14.13
2019-04-14T08:32:02.463Z,14.70
2019-04-14T08:37:09.035Z,14.47
2019-04-14T08:42:26.152Z,12.50
2019-04-14T08:47:49.969Z,12.37
2019-04-14T08:58:32.382Z,10.90
2019-04-14T09:03:58.244Z,11.27
2019-04-14T09:09:07.810Z,9.63
2019-04-14T09:14:14.717Z,11.77
2019-04-14T09:19:21.503Z,13.73
2019-04-14T09:24:28.834Z,11.77
2019-04-14T09:29:37.896Z,10.63
2019-04-14T09:34:44.628Z,12.97
2019-04-14T09:39:51.610Z,11.50
2019-04-14T09:44:59.420Z,11.43
2019-04-14T09:50:07.858Z,11.27
2019-04-14T09:55:14.244Z,11.40
2019-04-14T10:00:21.317Z,10.27
2019-04-14T10:05:28.121Z,9.63
2019-04-14T10:10:34.117Z,11.37
2019-04-14T10:15:41.750Z,12.83
2019-04-14T10:20:49.694Z,12.47
2019-04-14T10:25:56.721Z,14.87
2019-04-14T10:31:04.333Z,14.50
2019-04-14T10:36:12.221Z,15.13
2019-04-14T10:41:18.658Z,16.13
2019-04-14T10:46:25.019Z,14.13
2019-04-14T10:51:33.853Z,13.77
2019-04-14T10:56:40.369Z,16.37
2019-04-14T11:01:46.971Z,14.20
2019-04-14T11:06:55.049Z,13.77
2019-04-14T11:12:01.743Z,13.37
2019-04-14T11:17:08.655Z,15.30
2019-04-14T11:22:15.485Z,13.53
2019-04-14T11:27:23.659Z,15.27
2019-04-14T11:32:31.763Z,14.47
2019-04-14T11:37:45.511Z,14.77
2019-04-14T11:42:52.802Z,13.57
2019-04-14T11:47:59.719Z,12.67
2019-04-14T11:53:06.294Z,16.20
2019-04-14T11:58:13.248Z,12.93
2019-04-14T12:03:38.823Z,13.00
2019-04-14T12:09:04.450Z,11.50
2019-04-14T12:14:14.414Z,10.67
2019-04-14T12:19:21.330Z,13.60
2019-04-14T12:24:28.119Z,14.57
2019-04-14T12:29:35.100Z,11.17
2019-04-14T12:34:41.808Z,11.40
2019-04-14T12:39:48.169Z,10.00
2019-04-14T12:44:57.244Z,11.93
2019-04-14T12:50:08.512Z,10.60
2019-04-14T12:55:15.606Z,15.30
2019-04-14T13:00:24.969Z,16.87
2019-04-14T13:07:53.730Z,18.80
2019-04-14T13:13:20.252Z,18.60
2019-04-14T13:18:46.717Z,18.20
2019-04-14T13:24:12.846Z,19.33
2019-04-14T13:29:37.949Z,24.63
2019-04-14T13:35:04.500Z,30.20
2019-04-14T13:40:30.450Z,31.93
2019-04-14T13:45:59.821Z,31.67
2019-04-14T13:51:25.009Z,37.27
2019-04-14T13:56:51.276Z,36.00
2019-04-14T14:01:59.354Z,39.73
2019-04-14T14:07:08.597Z,36.47
2019-04-14T14:12:24.919Z,41.00
2019-04-14T14:17:34.524Z,37.83
2019-04-14T14:23:00.205Z,44.10
2019-04-14T14:28:09.249Z,36.80
2019-04-14T14:33:18.189Z,39.47
2019-04-14T14:38:26.209Z,46.27
2019-04-14T14:43:35.674Z,40.50
2019-04-14T14:48:52.604Z,42.93
2019-04-14T14:54:00.824Z,39.13
2019-04-14T14:59:08.015Z,44.77
2019-04-14T15:04:18.874Z,48.77
2019-04-14T15:09:26.550Z,47.17
2019-04-14T15:14:35.069Z,53.13
2019-04-14T15:19:43.515Z,51.77
2019-04-14T15:24:52.635Z,79.67
2019-04-14T15:30:00.867Z,113.43
2019-04-14T15:35:08.453Z,89.17
2019-04-14T15:40:16.725Z,157.57
2019-04-14T15:45:25.932Z,111.67
2019-04-14T15:50:41.319Z,168.07
2019-04-14T15:55:50.604Z,150.70
2019-04-14T16:01:05.247Z,219.93
2019-04-14T16:06:20.433Z,182.03
2019-04-14T16:11:40.046Z,267.37
2019-04-14T16:17:10.047Z,203.87
2019-04-14T16:22:17.829Z,275.20
2019-04-14T16:27:42.383Z,241.30
2019-04-14T16:33:08.419Z,228.10
2019-04-14T16:38:17.977Z,311.37
2019-04-14T16:43:26.983Z,233.77
2019-04-14T16:48:35.549Z,303.10
2019-04-14T16:53:46.845Z,321.00
2019-04-14T16:58:57.003Z,166.13
2019-04-14T17:04:05.536Z,303.93
2019-04-14T17:09:15.862Z,265.30
2019-04-14T17:14:32.566Z,227.50
2019-04-14T17:19:43.126Z,236.57
2019-04-14T17:25:06.093Z,190.63
2019-04-14T17:30:31.223Z,143.43
2019-04-14T17:35:44.974Z,302.73
2019-04-14T17:40:56.561Z,368.97
2019-04-14T17:46:07.561Z,303.20
2019-04-14T17:51:22.754Z,262.67
2019-04-14T17:56:32.934Z,267.70
2019-04-14T18:01:42.990Z,160.47
2019-04-14T18:06:55.308Z,301.73
2019-04-14T18:12:22.182Z,373.17
2019-04-14T18:17:39.819Z,182.20
2019-04-14T18:22:48.963Z,135.73
2019-04-14T18:28:15.000Z,270.93
2019-04-14T18:33:42.068Z,381.93
2019-04-14T18:39:04.014Z,407.50
2019-04-14T18:44:17.163Z,239.77
2019-04-14T18:49:31.954Z,292.40
2019-04-14T18:54:54.724Z,320.17
2019-04-14T19:00:08.769Z,380.47
2019-04-14T19:05:20.628Z,278.87
2019-04-14T19:10:30.334Z,269.63
2019-04-14T19:15:44.496Z,182.37
2019-04-14T19:20:53.838Z,149.00
2019-04-14T19:26:01.155Z,178.07
2019-04-14T19:31:10.190Z,193.27
2019-04-14T19:36:19.539Z,170.83
2019-04-14T19:41:27.417Z,245.07
2019-04-14T19:46:35.718Z,197.50
2019-04-14T19:51:45.329Z,164.40
2019-04-14T19:56:54.916Z,137.60
2019-04-14T20:02:02.830Z,214.13
2019-04-14T20:07:11.549Z,301.93
2019-04-14T20:12:20.694Z,274.83
2019-04-14T20:17:36.261Z,184.67
2019-04-14T20:23:03.805Z,180.27
2019-04-14T20:28:28.678Z,212.43
2019-04-14T20:33:35.791Z,185.93
2019-04-14T20:38:43.676Z,170.00
2019-04-14T20:43:51.317Z,236.33
2019-04-14T20:48:58.302Z,191.93
2019-04-14T20:54:06.531Z,221.00
2019-04-14T20:59:15.480Z,187.10
2019-04-14T21:04:27.477Z,173.90
2019-04-14T21:09:46.760Z,177.50
2019-04-14T21:15:02.668Z,132.00
2019-04-14T21:20:16.366Z,117.87
2019-04-14T21:25:25.870Z,106.13
2019-04-14T21:30:50.700Z,165.17
2019-04-14T21:35:59.535Z,154.07
2019-04-14T21:41:10.101Z,159.20
2019-04-14T21:46:29.914Z,107.27
2019-04-14T21:51:54.766Z,142.27
2019-04-14T21:57:07.257Z,136.17
2019-04-14T22:02:16.491Z,208.70
2019-04-14T22:07:27.170Z,122.70
2019-04-14T22:12:35.392Z,83.03
2019-04-14T22:17:44.453Z,110.13
2019-04-14T22:22:55.537Z,91.70
2019-04-14T22:28:03.094Z,81.93
2019-04-14T22:33:13.212Z,71.07
2019-04-14T22:38:21.125Z,94.30
2019-04-14T22:43:30.052Z,73.43
2019-04-14T23:09:23.887Z,81.93
2019-04-14T23:14:41.639Z,83.77
2019-04-14T23:20:00.199Z,83.47
2019-04-14T23:25:08.647Z,78.20
2019-04-14T23:30:16.628Z,77.33
2019-04-14T23:35:24.170Z,85.43
2019-04-14T23:40:31.457Z,81.87
2019-04-14T23:45:38.682Z,88.10
2019-04-14T23:50:48.932Z,88.20
2019-04-14T23:55:56.134Z,89.90
